createdAt,value
2023-03-25T00:01:42.420Z,96966.63
2023-03-25T00:04:09.936Z,96977.31
2023-03-25T00:06:37.568Z,96986.25
2023-03-25T00:09:05.078Z,96992.19
2023-03-25T00:11:32.738Z,96985.13
2023-03-25T00:14:00.445Z,96979.84
2023-03-25T00:16:27.999Z,96974.06
2023-03-25T00:18:55.660Z,96977.31
2023-03-25T00:21:23.385Z,96980.44
2023-03-25T00:23:51.075Z,96979.31
2023-03-25T00:26:18.641Z,96987.75
2023-03-25T00:28:46.423Z,96971.66
2023-03-25T00:31:14.989Z,96974.84
2023-03-25T00:33:42.889Z,96975.13
2023-03-25T00:36:14.407Z,96965.06
2023-03-25T00:38:43.374Z,96968.56
2023-03-25T00:41:35.850Z,96971.06
2023-03-25T00:44:04.552Z,96969.00
2023-03-25T00:46:34.005Z,96956.31
2023-03-25T00:49:01.715Z,96967.38
2023-03-25T00:51:31.429Z,96959.75
2023-03-25T00:54:03.473Z,96946.56
2023-03-25T00:56:31.471Z,96946.75
2023-03-25T00:58:59.076Z,96952.94
2023-03-25T01:01:29.092Z,96953.13
2023-03-25T01:04:00.175Z,96953.44
2023-03-25T01:06:35.979Z,96944.22
2023-03-25T01:09:07.712Z,96947.28
2023-03-25T01:11:38.272Z,96956.88
2023-03-25T01:14:11.284Z,96959.53
2023-03-25T01:16:40.109Z,96962.00
2023-03-25T01:19:07.636Z,96960.34
2023-03-25T01:21:36.664Z,96956.91
2023-03-25T01:24:06.009Z,96958.81
2023-03-25T01:26:33.844Z,96941.00
2023-03-25T01:29:02.126Z,96938.19
2023-03-25T01:31:31.692Z,96924.44
2023-03-25T01:34:00.579Z,96928.59
2023-03-25T01:36:31.536Z,96941.94
2023-03-25T01:39:01.320Z,96936.22
2023-03-25T01:41:42.257Z,96943.03
2023-03-25T01:44:14.205Z,96944.66
2023-03-25T01:46:49.096Z,96942.19
2023-03-25T01:49:31.195Z,96935.84
2023-03-25T01:52:05.472Z,96934.75
2023-03-25T01:54:34.216Z,96936.78
2023-03-25T01:57:02.936Z,96926.47
2023-03-25T01:59:30.879Z,96914.53
2023-03-25T02:02:03.910Z,96912.91
2023-03-25T02:04:59.666Z,96909.19
2023-03-25T02:07:30.990Z,96894.66
2023-03-25T02:10:06.707Z,96902.22
2023-03-25T02:12:34.279Z,96902.84
2023-03-25T02:15:06.159Z,96906.53
2023-03-25T02:17:47.657Z,96910.09
2023-03-25T02:20:30.276Z,96917.72
2023-03-25T02:23:28.310Z,96962.16
2023-03-25T02:26:22.088Z,97011.97
2023-03-25T02:29:23.910Z,97008.66
2023-03-25T02:32:12.221Z,97004.00
2023-03-25T02:35:08.244Z,97013.28
2023-03-25T02:38:34.148Z,97008.53
2023-03-25T02:41:25.788Z,97011.84
2023-03-25T02:44:21.747Z,97022.31
2023-03-25T02:46:55.894Z,96990.75
2023-03-25T02:49:36.193Z,96984.16
2023-03-25T02:52:31.983Z,96966.91
2023-03-25T02:55:04.961Z,96944.69
2023-03-25T02:57:35.339Z,96930.56
2023-03-25T03:00:15.784Z,96927.59
2023-03-25T03:03:04.803Z,96913.16
2023-03-25T03:05:43.726Z,96915.16
2023-03-25T03:08:50.860Z,96916.78
2023-03-25T03:11:31.134Z,96908.34
2023-03-25T03:14:19.356Z,96903.03
2023-03-25T03:17:08.955Z,96904.69
2023-03-25T03:19:48.113Z,96908.31
2023-03-25T03:23:02.024Z,96909.84
2023-03-25T03:25:40.297Z,96919.44
2023-03-25T03:28:22.506Z,96915.81
2023-03-25T03:31:00.452Z,96917.63
2023-03-25T03:33:53.355Z,96939.00
2023-03-25T03:36:27.573Z,96941.97
2023-03-25T03:39:10.864Z,96947.28
2023-03-25T03:41:42.461Z,96949.16
2023-03-25T03:44:18.538Z,96947.47
2023-03-25T03:47:28.517Z,96963.41
2023-03-25T03:50:04.214Z,96959.72
2023-03-25T03:53:07.678Z,96970.28
2023-03-25T03:55:47.163Z,96963.13
2023-03-25T03:58:29.901Z,96965.22
2023-03-25T04:01:30.306Z,96962.72
2023-03-25T04:04:07.560Z,96979.13
2023-03-25T04:06:42.025Z,96983.59
2023-03-25T04:09:40.929Z,96997.16
2023-03-25T04:12:23.777Z,97000.31
2023-03-25T04:14:51.303Z,97005.41
2023-03-25T04:17:18.963Z,97005.09
2023-03-25T04:19:48.868Z,97002.09
2023-03-25T04:22:18.445Z,96996.25
2023-03-25T04:24:49.601Z,97001.88
2023-03-25T04:27:23.031Z,97002.00
2023-03-25T04:29:51.975Z,97004.19
2023-03-25T04:32:19.515Z,97000.50
2023-03-25T04:34:47.072Z,97006.63
2023-03-25T04:37:14.744Z,97005.66
2023-03-25T04:39:42.290Z,97003.47
2023-03-25T04:42:13.631Z,96997.78
2023-03-25T04:44:41.180Z,96996.63
2023-03-25T04:47:14.822Z,96989.97
2023-03-25T04:49:44.927Z,97005.75
2023-03-25T04:52:12.509Z,96990.44
2023-03-25T04:54:40.692Z,97002.75
2023-03-25T04:57:11.423Z,97019.06
2023-03-25T04:59:39.075Z,97027.38
2023-03-25T05:02:13.401Z,97019.03
2023-03-25T05:04:47.286Z,97021.50
2023-03-25T05:07:16.456Z,97023.00
2023-03-25T05:09:44.158Z,97023.66
2023-03-25T05:12:11.845Z,97016.16
2023-03-25T05:14:39.858Z,97016.84
2023-03-25T05:17:07.358Z,97007.16
2023-03-25T05:22:37.800Z,96997.53
2023-03-25T05:25:07.958Z,96996.72
2023-03-25T05:27:36.638Z,97005.75
2023-03-25T05:30:06.535Z,96991.63
2023-03-25T05:32:34.364Z,96991.81
2023-03-25T05:35:04.227Z,96995.81
2023-03-25T05:37:31.786Z,96993.97
2023-03-25T05:39:59.428Z,97014.94
2023-03-25T05:42:27.301Z,96998.31
2023-03-25T05:44:54.957Z,96997.34
2023-03-25T05:47:25.021Z,96997.19
2023-03-25T05:49:53.967Z,96998.25
2023-03-25T05:52:24.636Z,97007.72
2023-03-25T05:54:52.424Z,97000.53
2023-03-25T05:57:19.949Z,97011.06
2023-03-25T05:59:48.076Z,97013.78
2023-03-25T06:02:17.237Z,97013.25
2023-03-25T06:04:46.508Z,97030.44
2023-03-25T06:07:19.729Z,97005.69
2023-03-25T06:09:48.146Z,97023.94
2023-03-25T06:12:19.941Z,97022.53
2023-03-25T06:14:53.772Z,97026.59
2023-03-25T06:17:22.599Z,97028.38
2023-03-25T06:19:51.727Z,97030.97
2023-03-25T06:22:22.422Z,97056.28
2023-03-25T06:24:50.089Z,97041.94
2023-03-25T06:27:19.412Z,97041.69
2023-03-25T06:29:47.768Z,97034.66
2023-03-25T06:32:16.134Z,97026.59
2023-03-25T06:34:44.519Z,97037.25
2023-03-25T06:37:12.089Z,97028.22
2023-03-25T06:39:39.657Z,97037.31
2023-03-25T06:42:16.064Z,97033.00
2023-03-25T06:44:56.209Z,97037.50
2023-03-25T06:47:45.344Z,97031.75
2023-03-25T06:50:13.008Z,97028.13
2023-03-25T06:52:40.609Z,97025.47
2023-03-25T06:55:08.679Z,97027.16
2023-03-25T06:57:36.225Z,97025.69
2023-03-25T07:00:06.805Z,97029.00
2023-03-25T07:02:34.829Z,97015.69
2023-03-25T07:05:27.771Z,97038.34
2023-03-25T07:07:55.869Z,97032.75
2023-03-25T07:10:23.491Z,97046.09
2023-03-25T07:12:51.086Z,97032.28
2023-03-25T07:15:18.680Z,97032.22
2023-03-25T07:17:49.375Z,97022.84
2023-03-25T07:20:17.340Z,97036.66
2023-03-25T07:22:44.959Z,97030.31
2023-03-25T07:25:12.488Z,97030.31
2023-03-25T07:27:40.830Z,97026.91
2023-03-25T07:30:15.744Z,97033.25
2023-03-25T07:32:47.055Z,97041.94
2023-03-25T07:35:14.664Z,97036.53
2023-03-25T07:37:42.185Z,97033.72
2023-03-25T07:40:10.371Z,97029.75
2023-03-25T07:42:38.408Z,97033.88
2023-03-25T07:45:21.223Z,97038.59
2023-03-25T07:47:51.569Z,97046.53
2023-03-25T07:50:29.811Z,97051.75
2023-03-25T07:52:57.406Z,97047.69
2023-03-25T07:55:24.959Z,97047.69
2023-03-25T07:57:52.487Z,97041.31
2023-03-25T08:00:20.559Z,97036.63
2023-03-25T08:02:48.125Z,97044.69
2023-03-25T08:05:21.272Z,97035.56
2023-03-25T08:07:50.363Z,97029.63
2023-03-25T08:10:19.301Z,97026.00
2023-03-25T08:12:46.992Z,97026.25
2023-03-25T08:15:14.830Z,97024.84
2023-03-25T08:17:42.350Z,97028.78
2023-03-25T08:20:11.342Z,97031.09
2023-03-25T08:22:38.898Z,97029.56
2023-03-25T08:25:07.961Z,97028.84
2023-03-25T08:27:35.542Z,97026.78
2023-03-25T08:30:04.980Z,97025.38
2023-03-25T08:32:32.517Z,97036.31
2023-03-25T08:35:00.377Z,97028.41
2023-03-25T08:37:27.985Z,97034.09
2023-03-25T08:39:56.073Z,97045.53
2023-03-25T08:42:23.619Z,97040.44
2023-03-25T08:44:51.315Z,97046.28
2023-03-25T08:47:18.884Z,97052.78
2023-03-25T08:49:46.437Z,97058.50
2023-03-25T08:52:13.981Z,97054.06
2023-03-25T08:54:41.506Z,97061.50
2023-03-25T08:57:09.101Z,97061.63
2023-03-25T08:59:36.697Z,97067.16
2023-03-25T09:02:04.402Z,97058.50
2023-03-25T09:04:31.914Z,97054.81
2023-03-25T09:07:11.970Z,97058.19
2023-03-25T09:09:43.096Z,97054.31
2023-03-25T09:12:10.840Z,97049.59
2023-03-25T09:14:38.507Z,97060.09
2023-03-25T09:17:06.320Z,97050.69
2023-03-25T09:19:35.332Z,97050.13
2023-03-25T09:22:02.976Z,97056.47
2023-03-25T09:24:33.913Z,97043.78
2023-03-25T09:27:03.010Z,97038.91
2023-03-25T09:29:30.742Z,97055.47
2023-03-25T09:31:59.687Z,97047.00
2023-03-25T09:34:28.560Z,97037.19
2023-03-25T09:36:56.423Z,97040.59
2023-03-25T09:39:23.992Z,97042.53
2023-03-25T09:42:26.851Z,97050.09
2023-03-25T09:45:41.845Z,97034.97
2023-03-25T09:48:28.626Z,97047.25
2023-03-25T09:51:02.693Z,97036.78
2023-03-25T09:53:59.374Z,97029.81
2023-03-25T09:56:31.236Z,97034.88
2023-03-25T09:59:07.415Z,97029.44
2023-03-25T10:02:04.543Z,97040.16
2023-03-25T10:05:06.389Z,97050.88
2023-03-25T10:07:37.151Z,97044.94
2023-03-25T10:10:31.614Z,97045.19
2023-03-25T10:13:14.995Z,97022.97
2023-03-25T10:16:07.152Z,97042.03
2023-03-25T10:19:07.915Z,97036.56
2023-03-25T10:22:01.222Z,97039.13
2023-03-25T10:24:32.877Z,97035.47
2023-03-25T10:27:31.446Z,97047.75
2023-03-25T10:30:32.816Z,97049.53
2023-03-25T10:33:05.875Z,97041.53
2023-03-25T10:35:42.653Z,97040.66
2023-03-25T10:38:24.175Z,97048.59
2023-03-25T10:41:19.878Z,97041.09
2023-03-25T10:43:47.484Z,97058.00
2023-03-25T10:46:34.430Z,97045.66
2023-03-25T10:49:01.932Z,97027.00
2023-03-25T10:51:33.952Z,97031.97
2023-03-25T10:54:01.669Z,97028.84
2023-03-25T10:56:42.767Z,97018.81
2023-03-25T10:59:34.712Z,97010.91
2023-03-25T11:02:14.027Z,97018.16
2023-03-25T11:04:44.264Z,97007.25
2023-03-25T11:07:36.075Z,96986.75
2023-03-25T11:10:28.373Z,97002.19
2023-03-25T11:12:58.724Z,97003.81
2023-03-25T11:15:38.067Z,96993.25
2023-03-25T11:18:16.108Z,97013.56
2023-03-25T11:20:51.437Z,97011.25
2023-03-25T11:23:33.971Z,97000.06
2023-03-25T11:26:21.599Z,97045.38
2023-03-25T11:28:54.135Z,96995.09
2023-03-25T11:31:27.701Z,96987.84
2023-03-25T11:34:21.079Z,96983.75
2023-03-25T11:36:55.103Z,96975.06
2023-03-25T11:39:41.080Z,96996.75
2023-03-25T11:42:19.318Z,96977.13
2023-03-25T11:44:56.134Z,96989.28
2023-03-25T11:47:31.891Z,96986.97
2023-03-25T11:50:00.971Z,96991.56
2023-03-25T11:52:44.370Z,96998.84
2023-03-25T11:55:26.599Z,96988.59
2023-03-25T11:57:57.508Z,96989.34
2023-03-25T12:00:25.068Z,97008.13
2023-03-25T12:03:15.928Z,96995.16
2023-03-25T12:06:11.855Z,96990.16
2023-03-25T12:09:12.924Z,96979.88
2023-03-25T12:12:05.977Z,97003.16
2023-03-25T12:14:48.801Z,96988.06
2023-03-25T12:17:21.969Z,96989.34
2023-03-25T12:20:34.300Z,97000.50
2023-03-25T12:23:04.548Z,96987.28
2023-03-25T12:26:06.673Z,96996.66
2023-03-25T12:29:09.241Z,97033.31
2023-03-25T12:32:02.009Z,97048.44
2023-03-25T12:34:56.678Z,97048.13
2023-03-25T12:38:07.709Z,97057.56
2023-03-25T12:40:59.700Z,97037.34
2023-03-25T12:43:57.890Z,97044.84
2023-03-25T12:46:39.286Z,97035.16
2023-03-25T12:49:19.065Z,97035.72
2023-03-25T12:52:19.940Z,97030.44
2023-03-25T12:55:25.539Z,97042.78
2023-03-25T12:58:57.137Z,97034.06
2023-03-25T13:02:09.851Z,97036.53
2023-03-25T13:05:14.550Z,97016.16
2023-03-25T13:08:01.133Z,97039.19
2023-03-25T13:10:34.791Z,97023.84
2023-03-25T13:13:25.711Z,97018.16
2023-03-25T13:16:07.979Z,97027.31
2023-03-25T13:18:40.667Z,97030.66
2023-03-25T13:21:21.529Z,97025.97
2023-03-25T13:24:00.054Z,97023.78
2023-03-25T13:26:31.106Z,97036.78
2023-03-25T13:29:05.473Z,97032.66
2023-03-25T13:31:37.397Z,97016.22
2023-03-25T13:35:06.181Z,97041.75
2023-03-25T13:37:42.202Z,97027.34
2023-03-25T13:40:51.297Z,97010.63
2023-03-25T13:43:32.064Z,96994.13
2023-03-25T13:46:36.928Z,97008.97
2023-03-25T13:49:16.922Z,96999.50
2023-03-25T13:51:45.498Z,97000.97
2023-03-25T13:54:34.744Z,97029.00
2023-03-25T13:57:24.409Z,97027.34
2023-03-25T14:00:14.499Z,97026.09
2023-03-25T14:03:27.349Z,97073.31
2023-03-25T14:06:29.468Z,97102.41
2023-03-25T14:09:35.264Z,97050.59
2023-03-25T14:12:21.271Z,97056.78
2023-03-25T14:14:58.270Z,97046.34
2023-03-25T14:17:28.342Z,97033.84
2023-03-25T14:19:59.498Z,97031.34
2023-03-25T14:22:31.890Z,97030.78
2023-03-25T14:25:00.845Z,97032.50
2023-03-25T14:27:37.505Z,97026.34
2023-03-25T14:30:21.456Z,97033.38
2023-03-25T14:32:49.772Z,97039.63
2023-03-25T14:35:35.089Z,97030.00
2023-03-25T14:38:08.624Z,97031.91
2023-03-25T14:40:58.946Z,97017.47
2023-03-25T14:43:46.707Z,97002.78
2023-03-25T14:46:19.285Z,97020.78
2023-03-25T14:49:05.679Z,97001.97
2023-03-25T14:51:34.903Z,97003.81
2023-03-25T14:54:30.329Z,96997.84
2023-03-25T14:57:15.933Z,96997.66
2023-03-25T15:00:17.371Z,96990.63
2023-03-25T15:02:58.451Z,96991.47
2023-03-25T15:05:29.668Z,96996.19
2023-03-25T15:08:13.998Z,97008.16
2023-03-25T15:10:51.062Z,96985.44
2023-03-25T15:13:34.595Z,96978.63
2023-03-25T15:16:33.173Z,96981.03
2023-03-25T15:19:20.675Z,96982.94
2023-03-25T15:21:57.195Z,96975.44
2023-03-25T15:24:37.937Z,96969.81
2023-03-25T15:27:35.778Z,96987.06
2023-03-25T15:30:12.646Z,96986.28
2023-03-25T15:33:26.330Z,96978.84
2023-03-25T15:36:28.012Z,96983.19
2023-03-25T15:39:31.930Z,96984.59
2023-03-25T15:42:28.962Z,96991.31
2023-03-25T15:45:37.830Z,96988.97
2023-03-25T15:48:22.712Z,96994.63
2023-03-25T15:51:16.516Z,96991.75
2023-03-25T15:54:14.252Z,96985.53
2023-03-25T15:56:46.853Z,96991.66
2023-03-25T15:59:31.717Z,96982.19
2023-03-25T16:02:03.222Z,96988.97
2023-03-25T16:04:44.177Z,96988.44
2023-03-25T16:07:15.483Z,96997.94
2023-03-25T16:09:49.109Z,96992.06
2023-03-25T16:12:25.669Z,97005.00
2023-03-25T16:14:53.275Z,96992.94
2023-03-25T16:17:25.445Z,96992.72
2023-03-25T16:19:55.909Z,97009.13
2023-03-25T16:22:34.651Z,97001.50
2023-03-25T16:25:08.094Z,97005.44
2023-03-25T16:27:42.247Z,96996.19
2023-03-25T16:30:25.323Z,97008.38
2023-03-25T16:32:53.527Z,96999.50
2023-03-25T16:35:26.705Z,97003.44
2023-03-25T16:37:57.962Z,96993.09
2023-03-25T16:40:43.360Z,96989.19
2023-03-25T16:43:22.046Z,96982.78
2023-03-25T16:45:52.948Z,96987.31
2023-03-25T16:48:48.985Z,96989.81
2023-03-25T16:51:22.845Z,96993.09
2023-03-25T16:53:56.099Z,96999.72
2023-03-25T16:56:30.860Z,97008.19
2023-03-25T16:59:33.393Z,97004.25
2023-03-25T17:02:03.387Z,97004.44
2023-03-25T17:04:41.870Z,97004.84
2023-03-25T17:07:26.606Z,96990.22
2023-03-25T17:09:59.665Z,96999.47
2023-03-25T17:12:29.119Z,97007.28
2023-03-25T17:15:06.797Z,97010.59
2023-03-25T17:17:41.520Z,97003.50
2023-03-25T17:20:27.367Z,97005.44
2023-03-25T17:23:18.018Z,97016.19
2023-03-25T17:25:58.489Z,97010.59
2023-03-25T17:29:01.864Z,97017.09
2023-03-25T17:31:38.164Z,97013.25
2023-03-25T17:34:14.657Z,97009.34
2023-03-25T17:36:46.909Z,97012.63
2023-03-25T17:39:26.224Z,97001.25
2023-03-25T17:42:08.205Z,96995.66
2023-03-25T17:44:39.301Z,97001.63
2023-03-25T17:47:15.698Z,97010.03
2023-03-25T17:49:43.506Z,97005.25
2023-03-25T17:52:11.294Z,97013.91
2023-03-25T17:54:38.776Z,97002.59
2023-03-25T17:57:18.305Z,97007.88
2023-03-25T17:59:47.133Z,97025.19
2023-03-25T18:02:17.044Z,97036.75
2023-03-25T18:04:44.777Z,97045.78
2023-03-25T18:07:12.331Z,97047.22
2023-03-25T18:09:41.283Z,97056.31
2023-03-25T18:12:11.016Z,97068.00
2023-03-25T18:14:38.585Z,97070.69
2023-03-25T18:17:06.294Z,97069.44
2023-03-25T18:19:34.484Z,97065.72
2023-03-25T18:22:09.960Z,97069.00
2023-03-25T18:24:46.909Z,97070.66
2023-03-25T18:27:14.713Z,97072.66
2023-03-25T18:29:42.293Z,97079.22
2023-03-25T18:32:09.945Z,97069.16
2023-03-25T18:34:37.473Z,97074.84
2023-03-25T18:37:04.969Z,97069.94
2023-03-25T18:39:32.663Z,97072.03
2023-03-25T18:42:00.516Z,97083.72
2023-03-25T18:44:30.542Z,97110.28
2023-03-25T18:46:58.204Z,97090.72
2023-03-25T18:49:27.594Z,97093.19
2023-03-25T18:51:56.832Z,97087.25
2023-03-25T18:54:24.380Z,97098.78
2023-03-25T18:56:52.056Z,97103.25
2023-03-25T18:59:20.651Z,97103.38
2023-03-25T19:01:48.243Z,97101.94
2023-03-25T19:04:16.343Z,97095.38
2023-03-25T19:06:44.208Z,97101.53
2023-03-25T19:09:22.637Z,97106.91
2023-03-25T19:11:50.230Z,97113.28
2023-03-25T19:14:17.739Z,97123.56
2023-03-25T19:16:57.345Z,97123.78
2023-03-25T19:19:29.121Z,97151.63
2023-03-25T19:21:56.655Z,97152.44
2023-03-25T19:24:24.164Z,97164.28
2023-03-25T19:26:51.735Z,97170.88
2023-03-25T19:29:19.228Z,97171.84
2023-03-25T19:31:46.848Z,97171.53
2023-03-25T19:34:14.392Z,97162.16
2023-03-25T19:36:41.891Z,97159.59
2023-03-25T19:39:10.649Z,97159.78
2023-03-25T19:41:42.610Z,97155.09
2023-03-25T19:44:10.277Z,97152.03
2023-03-25T19:46:37.982Z,97152.16
2023-03-25T19:49:05.831Z,97157.84
2023-03-25T19:51:33.320Z,97153.00
2023-03-25T19:54:00.856Z,97155.56
2023-03-25T19:56:28.384Z,97156.75
2023-03-25T19:58:55.899Z,97184.63
2023-03-25T20:01:24.242Z,97150.47
2023-03-25T20:03:52.456Z,97156.25
2023-03-25T20:06:20.687Z,97147.19
2023-03-25T20:08:48.237Z,97145.75
2023-03-25T20:11:15.823Z,97147.97
2023-03-25T20:13:43.450Z,97150.47
2023-03-25T20:16:11.697Z,97134.59
2023-03-25T20:18:41.182Z,97132.69
2023-03-25T20:21:09.964Z,97135.38
2023-03-25T20:23:37.571Z,97131.28
2023-03-25T20:26:05.880Z,97115.00
2023-03-25T20:28:33.424Z,97130.03
2023-03-25T20:31:01.025Z,97131.47
2023-03-25T20:33:28.597Z,97133.06
2023-03-25T20:35:56.274Z,97133.69
2023-03-25T20:38:23.797Z,97133.34
2023-03-25T20:40:54.504Z,97138.03
2023-03-25T20:43:22.048Z,97141.34
2023-03-25T20:45:54.195Z,97133.78
2023-03-25T20:48:22.876Z,97133.22
2023-03-25T20:51:04.437Z,97134.03
2023-03-25T20:53:33.045Z,97135.69
2023-03-25T20:56:01.185Z,97142.50
2023-03-25T20:58:30.016Z,97144.53
2023-03-25T21:00:59.018Z,97149.69
2023-03-25T21:03:27.876Z,97152.09
2023-03-25T21:06:10.348Z,97160.75
2023-03-25T21:08:38.542Z,97166.50
2023-03-25T21:11:07.089Z,97164.19
2023-03-25T21:13:34.944Z,97164.94
2023-03-25T21:16:02.788Z,97157.69
2023-03-25T21:18:30.712Z,97167.44
2023-03-25T21:21:01.347Z,97162.91
2023-03-25T21:23:31.728Z,97162.72
2023-03-25T21:26:04.288Z,97172.66
2023-03-25T21:28:32.133Z,97161.97
2023-03-25T21:31:08.907Z,97162.59
2023-03-25T21:33:37.945Z,97172.75
2023-03-25T21:36:08.640Z,97168.13
2023-03-25T21:38:36.649Z,97182.31
2023-03-25T21:41:06.945Z,97171.09
2023-03-25T21:43:39.574Z,97163.66
2023-03-25T21:46:07.304Z,97172.78
2023-03-25T21:48:38.091Z,97170.59
2023-03-25T21:51:12.124Z,97171.00
2023-03-25T21:53:44.704Z,97168.31
2023-03-25T21:56:20.007Z,97160.41
2023-03-25T21:58:48.654Z,97155.59
2023-03-25T22:01:23.043Z,97167.84
2023-03-25T22:03:55.108Z,97168.44
2023-03-25T22:06:27.012Z,97178.63
2023-03-25T22:08:56.947Z,97186.53
2023-03-25T22:11:31.159Z,97192.94
2023-03-25T22:13:58.742Z,97196.69
2023-03-25T22:16:26.781Z,97208.97
2023-03-25T22:18:54.280Z,97197.03
2023-03-25T22:21:26.002Z,97195.69
2023-03-25T22:23:55.990Z,97192.09
2023-03-25T22:26:25.524Z,97187.50
2023-03-25T22:29:01.024Z,97187.16
2023-03-25T22:31:32.568Z,97186.13
2023-03-25T22:34:04.079Z,97195.00
2023-03-25T22:36:33.936Z,97177.16
2023-03-25T22:39:02.797Z,97181.09
2023-03-25T22:41:31.147Z,97183.78
2023-03-25T22:43:58.998Z,97186.75
2023-03-25T22:46:26.570Z,97179.34
2023-03-25T22:48:54.092Z,97175.47
2023-03-25T22:51:21.995Z,97167.38
2023-03-25T22:53:49.581Z,97160.84
2023-03-25T22:56:17.195Z,97158.56
2023-03-25T22:58:44.689Z,97126.50
2023-03-25T23:01:38.682Z,97123.47
2023-03-25T23:04:06.861Z,97112.53
2023-03-25T23:06:36.247Z,97109.88
2023-03-25T23:09:08.080Z,97113.84
2023-03-25T23:11:36.825Z,97111.16
2023-03-25T23:14:13.185Z,97119.25
2023-03-25T23:16:41.834Z,97116.59
2023-03-25T23:19:09.975Z,97115.78
2023-03-25T23:21:38.380Z,97111.34
2023-03-25T23:24:06.782Z,97118.13
2023-03-25T23:26:40.822Z,97117.97
2023-03-25T23:29:11.477Z,97118.88
2023-03-25T23:31:43.266Z,97116.63
2023-03-25T23:34:16.062Z,97114.59
2023-03-25T23:36:45.265Z,97119.66
2023-03-25T23:39:17.019Z,97109.34
2023-03-25T23:41:44.591Z,97115.56
2023-03-25T23:44:13.053Z,97113.06
2023-03-25T23:46:41.896Z,97116.41
2023-03-25T23:49:10.751Z,97123.94
2023-03-25T23:51:41.468Z,97106.91
2023-03-25T23:54:12.897Z,97115.09
2023-03-25T23:56:42.121Z,97115.47
2023-03-25T23:59:11.598Z,97118.84
